createdAt,value
2023-04-18T00:01:03.718Z,96429.13
2023-04-18T00:03:32.118Z,96436.50
2023-04-18T00:06:00.184Z,96435.39
2023-04-18T00:08:28.660Z,96434.57
2023-04-18T00:10:56.736Z,96435.66
2023-04-18T00:13:25.329Z,96436.99
2023-04-18T00:15:54.265Z,96439.73
2023-04-18T00:18:22.266Z,96440.00
2023-04-18T00:20:50.336Z,96440.61
2023-04-18T00:23:18.931Z,96439.63
2023-04-18T00:25:47.619Z,96440.31
2023-04-18T00:28:15.694Z,96444.12
2023-04-18T00:30:43.709Z,96453.87
2023-04-18T00:33:11.843Z,96453.48
2023-04-18T00:35:40.419Z,96457.56
2023-04-18T00:38:08.888Z,96456.28
2023-04-18T00:40:37.843Z,96457.42
2023-04-18T00:43:07.632Z,96456.36
2023-04-18T00:45:35.843Z,96450.19
2023-04-18T00:48:04.494Z,96459.02
2023-04-18T00:50:33.455Z,96460.16
2023-04-18T00:53:01.526Z,96462.27
2023-04-18T00:55:29.678Z,96466.05
2023-04-18T00:57:57.663Z,96466.63
2023-04-18T01:00:26.043Z,96464.91
2023-04-18T01:02:56.005Z,96458.75
2023-04-18T01:05:24.345Z,96457.20
2023-04-18T01:07:52.806Z,96451.04
2023-04-18T01:10:20.904Z,96452.51
2023-04-18T01:12:50.992Z,96452.61
2023-04-18T01:15:19.090Z,96450.20
2023-04-18T01:17:47.519Z,96451.70
2023-04-18T01:20:17.005Z,96452.31
2023-04-18T01:22:45.154Z,96451.88
2023-04-18T01:25:13.831Z,96452.79
2023-04-18T01:27:41.805Z,96451.48
2023-04-18T01:30:10.805Z,96454.16
2023-04-18T01:32:38.955Z,96451.91
2023-04-18T01:35:07.764Z,96448.80
2023-04-18T01:37:36.042Z,96448.83
2023-04-18T01:40:04.925Z,96448.49
2023-04-18T01:42:32.885Z,96450.65
2023-04-18T01:45:00.981Z,96443.36
2023-04-18T01:47:29.065Z,96448.07
2023-04-18T01:49:57.204Z,96449.17
2023-04-18T01:52:25.389Z,96445.17
2023-04-18T01:54:53.459Z,96447.08
2023-04-18T01:57:21.534Z,96445.20
2023-04-18T01:59:50.634Z,96447.96
2023-04-18T02:02:19.685Z,96447.67
2023-04-18T02:04:47.890Z,96449.10
2023-04-18T02:07:15.871Z,96446.16
2023-04-18T02:09:43.762Z,96445.17
2023-04-18T02:12:12.938Z,96444.06
2023-04-18T02:14:40.946Z,96443.53
2023-04-18T02:17:09.087Z,96439.73
2023-04-18T02:19:37.573Z,96441.92
2023-04-18T02:22:05.731Z,96443.10
2023-04-18T02:24:33.806Z,96444.23
2023-04-18T02:27:02.079Z,96445.20
2023-04-18T02:29:30.722Z,96443.36
2023-04-18T02:31:58.818Z,96446.65
2023-04-18T02:34:26.787Z,96447.91
2023-04-18T02:36:54.781Z,96442.18
2023-04-18T02:39:22.741Z,96444.09
2023-04-18T02:41:51.346Z,96442.01
2023-04-18T02:44:19.404Z,96441.06
2023-04-18T02:46:47.679Z,96448.75
2023-04-18T02:49:15.956Z,96445.13
2023-04-18T02:51:45.721Z,96450.04
2023-04-18T02:54:14.045Z,96448.84
2023-04-18T02:56:55.663Z,96446.27
2023-04-18T02:59:27.294Z,96451.52
2023-04-18T03:01:58.053Z,96447.35
2023-04-18T03:04:26.413Z,96448.32
2023-04-18T03:07:02.982Z,96447.21
2023-04-18T03:09:33.395Z,96450.42
2023-04-18T03:12:05.874Z,96449.13
2023-04-18T03:14:35.192Z,96453.59
2023-04-18T03:17:04.486Z,96458.27
2023-04-18T03:19:37.478Z,96459.73
2023-04-18T03:22:09.426Z,96458.38
2023-04-18T03:24:41.499Z,96462.48
2023-04-18T03:27:09.877Z,96462.92
2023-04-18T03:29:38.755Z,96456.23
2023-04-18T03:32:07.005Z,96457.83
2023-04-18T03:34:35.117Z,96458.19
2023-04-18T03:37:04.516Z,96457.52
2023-04-18T03:39:33.810Z,96460.20
2023-04-18T03:42:02.594Z,96459.42
2023-04-18T03:44:30.653Z,96458.23
2023-04-18T03:46:58.733Z,96457.86
2023-04-18T03:49:27.021Z,96460.09
2023-04-18T03:51:55.199Z,96460.80
2023-04-18T03:54:23.396Z,96464.03
2023-04-18T03:56:51.450Z,96469.16
2023-04-18T03:59:20.224Z,96473.10
2023-04-18T04:01:50.248Z,96472.45
2023-04-18T04:04:19.291Z,96472.83
2023-04-18T04:06:47.686Z,96473.24
2023-04-18T04:09:17.932Z,96476.09
2023-04-18T04:11:46.308Z,96479.71
2023-04-18T04:14:15.252Z,96482.92
2023-04-18T04:16:46.054Z,96482.77
2023-04-18T04:19:16.288Z,96483.04
2023-04-18T04:21:54.406Z,96484.54
2023-04-18T04:24:23.114Z,96486.16
2023-04-18T04:26:51.962Z,96492.69
2023-04-18T04:29:23.862Z,96495.50
2023-04-18T04:31:53.102Z,96494.64
2023-04-18T04:34:31.249Z,96501.52
2023-04-18T04:37:01.242Z,96503.11
2023-04-18T04:39:29.560Z,96502.09
2023-04-18T04:42:29.844Z,96500.42
2023-04-18T04:45:03.991Z,96499.30
2023-04-18T04:47:32.265Z,96497.71
2023-04-18T04:50:00.483Z,96498.08
2023-04-18T04:52:28.490Z,96493.83
2023-04-18T04:54:56.881Z,96494.09
2023-04-18T04:57:25.745Z,96492.92
2023-04-18T04:59:54.227Z,96493.77
2023-04-18T05:02:23.717Z,96495.83
2023-04-18T05:04:52.120Z,96503.25
2023-04-18T05:07:20.183Z,96506.97
2023-04-18T05:09:48.286Z,96507.80
2023-04-18T05:12:16.187Z,96505.67
2023-04-18T05:14:44.349Z,96504.94
2023-04-18T05:17:12.289Z,96509.39
2023-04-18T05:19:40.959Z,96513.60
2023-04-18T05:22:09.032Z,96518.59
2023-04-18T05:24:37.002Z,96520.40
2023-04-18T05:27:05.069Z,96525.41
2023-04-18T05:29:33.450Z,96523.77
2023-04-18T05:32:01.942Z,96524.73
2023-04-18T05:34:30.576Z,96527.63
2023-04-18T05:36:58.692Z,96532.11
2023-04-18T05:39:27.075Z,96531.63
2023-04-18T05:41:55.237Z,96531.60
2023-04-18T05:44:24.345Z,96530.66
2023-04-18T05:46:52.626Z,96529.77
2023-04-18T05:49:20.903Z,96528.10
2023-04-18T05:51:50.086Z,96530.45
2023-04-18T05:54:18.161Z,96531.64
2023-04-18T05:56:46.253Z,96531.52
2023-04-18T05:59:14.311Z,96532.85
2023-04-18T06:01:42.384Z,96534.17
2023-04-18T06:04:10.863Z,96532.36
2023-04-18T06:06:40.156Z,96535.58
2023-04-18T06:09:08.438Z,96537.01
2023-04-18T06:11:36.614Z,96535.42
2023-04-18T06:14:04.686Z,96537.02
2023-04-18T06:16:32.726Z,96536.39
2023-04-18T06:19:02.569Z,96536.42
2023-04-18T06:21:30.847Z,96533.17
2023-04-18T06:23:59.337Z,96532.95
2023-04-18T06:26:27.615Z,96528.68
2023-04-18T06:28:56.107Z,96523.06
2023-04-18T06:31:24.432Z,96519.53
2023-04-18T06:33:52.653Z,96521.30
2023-04-18T06:36:21.217Z,96519.00
2023-04-18T06:38:49.200Z,96521.61
2023-04-18T06:41:17.197Z,96519.21
2023-04-18T06:43:59.711Z,96520.63
2023-04-18T06:46:32.365Z,96522.06
2023-04-18T06:49:00.527Z,96522.88
2023-04-18T06:51:29.335Z,96521.73
2023-04-18T06:53:57.357Z,96522.80
2023-04-18T06:56:25.555Z,96524.46
2023-04-18T06:58:53.474Z,96524.33
2023-04-18T07:01:21.722Z,96519.64
2023-04-18T07:03:50.061Z,96521.17
2023-04-18T07:06:19.088Z,96522.58
2023-04-18T07:08:47.078Z,96522.38
2023-04-18T07:11:15.945Z,96525.15
2023-04-18T07:13:45.440Z,96523.36
2023-04-18T07:16:13.424Z,96530.52
2023-04-18T07:18:41.416Z,96530.70
2023-04-18T07:21:09.680Z,96532.42
2023-04-18T07:23:38.027Z,96533.02
2023-04-18T07:26:06.071Z,96530.27
2023-04-18T07:28:34.278Z,96532.58
2023-04-18T07:31:04.103Z,96533.16
2023-04-18T07:33:34.083Z,96535.27
2023-04-18T07:36:03.140Z,96534.52
2023-04-18T07:38:31.168Z,96535.62
2023-04-18T07:40:59.769Z,96537.92
2023-04-18T07:43:27.885Z,96538.30
2023-04-18T07:45:56.048Z,96535.44
2023-04-18T07:48:25.729Z,96536.46
2023-04-18T07:50:53.956Z,96533.56
2023-04-18T07:53:21.969Z,96528.45
2023-04-18T07:55:50.398Z,96531.89
2023-04-18T07:58:18.430Z,96530.46
2023-04-18T08:00:46.665Z,96529.15
2023-04-18T08:03:14.998Z,96528.37
2023-04-18T08:05:43.406Z,96528.95
2023-04-18T08:08:12.148Z,96526.33
2023-04-18T08:10:40.308Z,96527.19
2023-04-18T08:13:08.553Z,96525.91
2023-04-18T08:15:36.870Z,96525.55
2023-04-18T08:18:05.129Z,96522.27
2023-04-18T08:20:34.539Z,96521.64
2023-04-18T08:23:08.560Z,96522.02
2023-04-18T08:25:38.679Z,96523.25
2023-04-18T08:28:06.878Z,96520.34
2023-04-18T08:30:35.022Z,96521.36
2023-04-18T08:33:03.356Z,96519.64
2023-04-18T08:35:31.582Z,96518.02
2023-04-18T08:38:00.976Z,96521.42
2023-04-18T08:40:30.613Z,96521.76
2023-04-18T08:42:59.072Z,96524.45
2023-04-18T08:45:45.154Z,96522.40
2023-04-18T08:48:14.556Z,96519.20
2023-04-18T08:50:43.038Z,96522.00
2023-04-18T08:53:28.620Z,96520.63
2023-04-18T08:55:57.319Z,96523.75
2023-04-18T08:58:27.728Z,96520.70
2023-04-18T09:00:55.793Z,96519.59
2023-04-18T09:03:41.930Z,96514.65
2023-04-18T09:06:14.260Z,96510.30
2023-04-18T09:08:43.954Z,96512.14
2023-04-18T09:11:29.365Z,96514.95
2023-04-18T09:14:24.881Z,96515.98
2023-04-18T09:16:53.607Z,96513.03
2023-04-18T09:19:22.054Z,96516.35
2023-04-18T09:22:08.459Z,96514.44
2023-04-18T09:24:57.285Z,96514.71
2023-04-18T09:27:25.590Z,96517.45
2023-04-18T09:29:56.508Z,96512.39
2023-04-18T09:32:27.388Z,96515.99
2023-04-18T09:35:03.971Z,96511.18
2023-04-18T09:37:32.842Z,96512.89
2023-04-18T09:40:01.020Z,96512.01
2023-04-18T09:42:31.307Z,96509.98
2023-04-18T09:45:05.092Z,96510.49
2023-04-18T09:47:35.364Z,96505.84
2023-04-18T09:50:04.894Z,96504.60
2023-04-18T09:52:35.581Z,96502.46
2023-04-18T09:55:05.630Z,96502.13
2023-04-18T09:57:34.299Z,96505.02
2023-04-18T10:00:17.931Z,96504.39
2023-04-18T10:02:53.658Z,96510.38
2023-04-18T10:05:30.913Z,96507.79
2023-04-18T10:07:59.258Z,96508.88
2023-04-18T10:10:27.522Z,96508.64
2023-04-18T10:12:57.121Z,96509.04
2023-04-18T10:15:27.157Z,96505.83
2023-04-18T10:18:04.339Z,96502.38
2023-04-18T10:20:33.775Z,96503.15
2023-04-18T10:23:37.784Z,96504.26
2023-04-18T10:26:06.843Z,96502.12
2023-04-18T10:28:57.548Z,96505.40
2023-04-18T10:31:27.064Z,96505.11
2023-04-18T10:36:30.369Z,96507.73
2023-04-18T10:39:04.246Z,96503.25
2023-04-18T10:41:33.368Z,96500.17
2023-04-18T10:44:10.374Z,96497.09
2023-04-18T10:46:50.758Z,96497.03
2023-04-18T10:49:23.921Z,96494.45
2023-04-18T10:51:55.040Z,96488.14
2023-04-18T10:54:31.005Z,96484.66
2023-04-18T10:57:01.829Z,96485.50
2023-04-18T10:59:31.730Z,96484.56
2023-04-18T11:02:19.335Z,96482.73
2023-04-18T11:04:51.783Z,96478.64
2023-04-18T11:07:20.548Z,96480.17
2023-04-18T11:09:54.857Z,96481.79
2023-04-18T11:12:23.035Z,96480.83
2023-04-18T11:14:52.853Z,96476.75
2023-04-18T11:17:24.374Z,96475.27
2023-04-18T11:20:03.129Z,96475.91
2023-04-18T11:22:31.305Z,96472.42
2023-04-18T11:25:07.214Z,96471.02
2023-04-18T11:27:35.225Z,96468.94
2023-04-18T11:30:03.715Z,96467.83
2023-04-18T11:32:31.786Z,96463.73
2023-04-18T11:34:59.955Z,96463.59
2023-04-18T11:37:27.920Z,96460.27
2023-04-18T11:39:55.895Z,96460.24
2023-04-18T11:42:28.756Z,96462.29
2023-04-18T11:44:56.859Z,96459.68
2023-04-18T11:50:06.717Z,96457.27
2023-04-18T11:52:35.710Z,96455.68
2023-04-18T11:55:21.422Z,96458.30
2023-04-18T11:57:53.157Z,96453.23
2023-04-18T12:00:32.514Z,96448.87
2023-04-18T12:03:02.349Z,96448.90
2023-04-18T12:05:32.349Z,96441.86
2023-04-18T12:08:18.110Z,96439.77
2023-04-18T12:10:47.632Z,96438.33
2023-04-18T12:13:15.686Z,96435.17
2023-04-18T12:15:45.045Z,96432.80
2023-04-18T12:18:14.427Z,96430.80
2023-04-18T12:20:50.281Z,96425.56
2023-04-18T12:23:30.702Z,96424.63
2023-04-18T12:26:11.271Z,96428.93
2023-04-18T12:28:39.449Z,96429.27
2023-04-18T12:31:07.587Z,96422.86
2023-04-18T12:33:38.766Z,96423.19
2023-04-18T12:36:08.659Z,96426.35
2023-04-18T12:38:36.839Z,96421.59
2023-04-18T12:41:05.537Z,96424.34
2023-04-18T12:43:33.569Z,96425.16
2023-04-18T12:46:01.785Z,96428.31
2023-04-18T12:48:29.847Z,96428.67
2023-04-18T12:50:58.029Z,96426.18
2023-04-18T12:53:26.294Z,96423.27
2023-04-18T12:55:54.276Z,96421.02
2023-04-18T12:58:22.335Z,96420.83
2023-04-18T13:00:50.419Z,96422.04
2023-04-18T13:03:18.557Z,96418.37
2023-04-18T13:05:46.666Z,96418.29
2023-04-18T13:08:17.579Z,96421.52
2023-04-18T13:10:47.718Z,96419.71
2023-04-18T13:13:16.174Z,96414.45
2023-04-18T13:15:44.485Z,96416.65
2023-04-18T13:18:12.655Z,96410.58
2023-04-18T13:20:40.827Z,96408.27
2023-04-18T13:23:09.005Z,96407.19
2023-04-18T13:25:37.093Z,96405.63
2023-04-18T13:28:05.755Z,96403.56
2023-04-18T13:30:35.930Z,96403.67
2023-04-18T13:33:04.445Z,96405.35
2023-04-18T13:35:32.736Z,96402.86
2023-04-18T13:38:00.918Z,96402.73
2023-04-18T13:40:29.088Z,96401.27
2023-04-18T13:42:57.147Z,96400.05
2023-04-18T13:45:25.447Z,96401.40
2023-04-18T13:47:53.568Z,96399.15
2023-04-18T13:50:23.287Z,96392.52
2023-04-18T13:52:52.183Z,96392.02
2023-04-18T13:55:20.293Z,96393.23
2023-04-18T13:57:48.456Z,96390.80
2023-04-18T14:00:17.660Z,96388.88
2023-04-18T14:02:45.945Z,96392.26
2023-04-18T14:05:14.147Z,96390.64
2023-04-18T14:07:42.278Z,96387.52
2023-04-18T14:10:11.037Z,96386.56
2023-04-18T14:12:40.129Z,96382.09
2023-04-18T14:15:09.133Z,96381.52
2023-04-18T14:17:37.166Z,96384.70
2023-04-18T14:20:06.420Z,96381.33
2023-04-18T14:22:34.364Z,96380.65
2023-04-18T14:25:02.477Z,96384.88
2023-04-18T14:27:30.844Z,96378.98
2023-04-18T14:29:58.754Z,96378.30
2023-04-18T14:32:27.021Z,96375.99
2023-04-18T14:34:54.983Z,96377.52
2023-04-18T14:37:23.139Z,96378.70
2023-04-18T14:39:51.308Z,96378.70
2023-04-18T14:42:19.277Z,96374.05
2023-04-18T14:44:47.413Z,96377.44
2023-04-18T14:47:16.030Z,96378.98
2023-04-18T14:49:43.981Z,96381.95
2023-04-18T14:52:11.980Z,96378.98
2023-04-18T14:54:40.152Z,96380.81
2023-04-18T14:57:10.383Z,96378.19
2023-04-18T14:59:38.649Z,96378.80
2023-04-18T15:02:06.726Z,96377.70
2023-04-18T15:04:34.884Z,96377.69
2023-04-18T15:07:02.973Z,96378.83
2023-04-18T15:09:35.431Z,96376.66
2023-04-18T15:12:04.398Z,96374.24
2023-04-18T15:14:32.968Z,96374.76
2023-04-18T15:17:01.400Z,96372.61
2023-04-18T15:19:30.764Z,96371.91
2023-04-18T15:21:58.670Z,96371.50
2023-04-18T15:24:26.799Z,96374.81
2023-04-18T15:26:54.916Z,96378.61
2023-04-18T15:29:23.397Z,96376.44
2023-04-18T15:31:51.527Z,96377.61
2023-04-18T15:34:19.670Z,96378.68
2023-04-18T15:36:49.119Z,96373.01
2023-04-18T15:39:20.369Z,96370.74
2023-04-18T15:41:48.358Z,96370.98
2023-04-18T15:44:16.446Z,96369.65
2023-04-18T15:46:44.622Z,96369.13
2023-04-18T15:49:12.959Z,96369.24
2023-04-18T15:51:41.156Z,96370.56
2023-04-18T15:54:09.344Z,96368.05
2023-04-18T15:56:37.276Z,96362.71
2023-04-18T15:59:06.176Z,96366.81
2023-04-18T16:01:35.862Z,96367.73
2023-04-18T16:04:04.285Z,96368.08
2023-04-18T16:06:32.558Z,96368.36
2023-04-18T16:09:00.532Z,96371.23
2023-04-18T16:11:29.031Z,96371.34
2023-04-18T16:13:57.176Z,96372.82
2023-04-18T16:16:25.275Z,96376.46
2023-04-18T16:18:53.537Z,96373.70
2023-04-18T16:21:21.606Z,96372.05
2023-04-18T16:23:49.863Z,96374.05
2023-04-18T16:26:17.971Z,96372.77
2023-04-18T16:28:46.120Z,96373.48
2023-04-18T16:31:14.345Z,96376.19
2023-04-18T16:33:42.643Z,96376.38
2023-04-18T16:36:10.668Z,96376.96
2023-04-18T16:38:38.744Z,96381.65
2023-04-18T16:41:06.793Z,96380.98
2023-04-18T16:43:38.207Z,96379.70
2023-04-18T16:46:06.588Z,96381.69
2023-04-18T16:48:38.004Z,96381.02
2023-04-18T16:51:06.756Z,96381.98
2023-04-18T16:53:34.753Z,96381.84
2023-04-18T16:56:03.342Z,96389.89
2023-04-18T16:58:31.590Z,96391.80
2023-04-18T17:01:01.838Z,96388.41
2023-04-18T17:03:30.434Z,96390.20
2023-04-18T17:06:01.555Z,96389.91
2023-04-18T17:08:31.566Z,96388.19
2023-04-18T17:10:59.957Z,96389.91
2023-04-18T17:13:30.786Z,96388.48
2023-04-18T17:15:58.885Z,96388.63
2023-04-18T17:18:27.041Z,96388.55
2023-04-18T17:20:55.205Z,96383.96
2023-04-18T17:23:23.369Z,96387.68
2023-04-18T17:25:51.435Z,96391.77
2023-04-18T17:28:19.731Z,96391.37
2023-04-18T17:30:47.786Z,96388.79
2023-04-18T17:33:15.788Z,96388.09
2023-04-18T17:35:43.867Z,96392.64
2023-04-18T17:38:12.832Z,96395.20
2023-04-18T17:40:40.895Z,96396.34
2023-04-18T17:43:10.716Z,96397.45
2023-04-18T17:45:38.890Z,96402.17
2023-04-18T17:48:06.981Z,96400.23
2023-04-18T17:50:37.191Z,96399.98
2023-04-18T17:53:05.460Z,96402.28
2023-04-18T17:55:33.834Z,96404.65
2023-04-18T17:58:02.022Z,96403.54
2023-04-18T18:00:30.723Z,96398.70
2023-04-18T18:03:01.697Z,96401.27
2023-04-18T18:05:30.516Z,96401.57
2023-04-18T18:08:00.121Z,96398.94
2023-04-18T18:10:28.614Z,96397.88
2023-04-18T18:12:56.824Z,96401.05
2023-04-18T18:15:25.058Z,96401.88
2023-04-18T18:17:53.583Z,96399.30
2023-04-18T18:20:21.711Z,96401.63
2023-04-18T18:22:49.991Z,96399.54
2023-04-18T18:25:18.606Z,96398.13
2023-04-18T18:27:47.374Z,96401.38
2023-04-18T18:30:15.520Z,96402.41
2023-04-18T18:32:43.660Z,96402.98
2023-04-18T18:35:12.643Z,96400.43
2023-04-18T18:37:41.304Z,96397.23
2023-04-18T18:40:10.315Z,96403.27
2023-04-18T18:42:39.673Z,96398.63
2023-04-18T18:45:09.724Z,96399.55
2023-04-18T18:47:39.797Z,96399.84
2023-04-18T18:50:09.226Z,96398.95
2023-04-18T18:52:37.280Z,96400.27
2023-04-18T18:55:05.877Z,96401.13
2023-04-18T18:57:34.685Z,96402.77
2023-04-18T19:00:02.755Z,96402.08
2023-04-18T19:02:31.227Z,96398.39
2023-04-18T19:04:59.958Z,96402.82
2023-04-18T19:07:30.859Z,96399.46
2023-04-18T19:10:00.769Z,96401.27
2023-04-18T19:12:29.384Z,96399.48
2023-04-18T19:14:57.530Z,96398.26
2023-04-18T19:17:27.734Z,96397.25
2023-04-18T19:19:57.998Z,96396.38
2023-04-18T19:22:26.148Z,96395.35
2023-04-18T19:24:54.313Z,96395.18
2023-04-18T19:27:22.292Z,96395.45
2023-04-18T19:29:50.770Z,96396.76
2023-04-18T19:32:18.853Z,96396.27
2023-04-18T19:34:46.802Z,96395.41
2023-04-18T19:37:14.786Z,96398.27
2023-04-18T19:39:42.855Z,96403.36
2023-04-18T19:42:10.930Z,96405.00
2023-04-18T19:44:39.001Z,96408.06
2023-04-18T19:47:07.071Z,96410.29
2023-04-18T19:49:35.036Z,96411.43
2023-04-18T19:52:03.007Z,96414.87
2023-04-18T19:54:33.952Z,96415.82
2023-04-18T19:57:02.509Z,96415.38
2023-04-18T19:59:30.630Z,96415.25
2023-04-18T20:02:01.410Z,96416.60
2023-04-18T20:04:31.702Z,96417.88
2023-04-18T20:06:59.827Z,96417.70
2023-04-18T20:09:27.748Z,96418.85
2023-04-18T20:11:57.006Z,96418.77
2023-04-18T20:14:24.978Z,96420.97
2023-04-18T20:16:53.077Z,96419.37
2023-04-18T20:19:21.628Z,96421.27
2023-04-18T20:21:49.536Z,96417.27
2023-04-18T20:24:17.979Z,96416.33
2023-04-18T20:26:45.953Z,96421.27
2023-04-18T20:29:14.205Z,96420.25
2023-04-18T20:31:42.808Z,96417.89
2023-04-18T20:34:11.182Z,96418.19
2023-04-18T20:36:42.157Z,96421.05
2023-04-18T20:39:10.300Z,96420.20
2023-04-18T20:41:46.373Z,96414.66
2023-04-18T20:44:14.724Z,96415.59
2023-04-18T20:46:42.899Z,96416.79
2023-04-18T20:49:11.394Z,96415.48
2023-04-18T20:51:39.709Z,96413.34
2023-04-18T20:54:07.831Z,96410.84
2023-04-18T20:56:38.995Z,96408.13
2023-04-18T20:59:07.271Z,96406.77
2023-04-18T21:01:37.030Z,96407.58
2023-04-18T21:04:05.662Z,96406.10
2023-04-18T21:06:33.725Z,96407.95
2023-04-18T21:09:01.809Z,96409.44
2023-04-18T21:11:29.776Z,96406.05
2023-04-18T21:13:58.058Z,96410.22
2023-04-18T21:16:26.366Z,96404.83
2023-04-18T21:18:55.825Z,96400.38
2023-04-18T21:21:24.419Z,96401.83
2023-04-18T21:23:52.396Z,96400.44
2023-04-18T21:26:21.145Z,96395.02
2023-04-18T21:28:53.421Z,96395.59
2023-04-18T21:31:21.575Z,96391.56
2023-04-18T21:33:54.398Z,96392.47
2023-04-18T21:36:23.602Z,96386.34
2023-04-18T21:38:53.425Z,96392.11
2023-04-18T21:41:21.584Z,96394.33
2023-04-18T21:43:49.649Z,96395.92
2023-04-18T21:46:18.173Z,96397.83
2023-04-18T21:48:47.122Z,96399.80
2023-04-18T21:51:16.135Z,96397.29
2023-04-18T21:53:44.308Z,96398.04
2023-04-18T21:56:12.469Z,96394.55
2023-04-18T21:58:40.560Z,96399.77
2023-04-18T22:01:08.571Z,96396.42
2023-04-18T22:03:37.178Z,96388.81
2023-04-18T22:06:05.779Z,96387.75
2023-04-18T22:08:34.069Z,96389.64
2023-04-18T22:11:02.167Z,96387.11
2023-04-18T22:13:33.304Z,96386.88
2023-04-18T22:16:03.033Z,96383.23
2023-04-18T22:18:33.813Z,96384.35
2023-04-18T22:21:03.578Z,96383.33
2023-04-18T22:23:31.678Z,96380.02
2023-04-18T22:25:59.890Z,96379.57
2023-04-18T22:28:28.793Z,96378.88
2023-04-18T22:30:57.153Z,96378.60
2023-04-18T22:33:25.626Z,96379.17
2023-04-18T22:35:54.445Z,96378.80
2023-04-18T22:38:22.411Z,96376.36
2023-04-18T22:40:50.328Z,96374.05
2023-04-18T22:43:23.971Z,96372.30
2023-04-18T22:45:52.189Z,96370.54
2023-04-18T22:48:20.322Z,96370.16
2023-04-18T22:50:50.083Z,96366.12
2023-04-18T22:53:18.501Z,96362.52
2023-04-18T22:55:46.876Z,96361.42
2023-04-18T22:58:15.144Z,96364.98
2023-04-18T23:00:43.540Z,96359.70
2023-04-18T23:03:11.873Z,96358.48
2023-04-18T23:05:40.730Z,96359.88
2023-04-18T23:08:08.977Z,96357.21
2023-04-18T23:10:37.048Z,96354.54
2023-04-18T23:13:05.324Z,96350.29
2023-04-18T23:15:33.446Z,96344.77
2023-04-18T23:18:01.715Z,96340.80
2023-04-18T23:20:29.868Z,96344.24
2023-04-18T23:22:57.941Z,96341.58
2023-04-18T23:25:25.998Z,96336.23
2023-04-18T23:27:54.069Z,96333.65
2023-04-18T23:30:22.418Z,96331.67
2023-04-18T23:32:50.659Z,96327.11
2023-04-18T23:35:18.905Z,96325.17
2023-04-18T23:37:47.073Z,96321.94
2023-04-18T23:40:15.141Z,96320.59
2023-04-18T23:42:44.044Z,96322.32
2023-04-18T23:45:12.528Z,96319.46
2023-04-18T23:47:40.628Z,96317.45
2023-04-18T23:50:09.682Z,96317.45
2023-04-18T23:52:38.690Z,96310.90
2023-04-18T23:55:07.362Z,96308.56
2023-04-18T23:57:35.442Z,96303.37
